createdAt,value
2019-02-06T00:01:46.992Z,36.73
2019-02-06T00:04:15.502Z,36.05
2019-02-06T00:06:42.722Z,34.90
2019-02-06T00:09:13.213Z,36.35
2019-02-06T00:11:40.671Z,36.33
2019-02-06T00:14:08.052Z,36.08
2019-02-06T00:16:35.429Z,35.80
2019-02-06T00:19:02.463Z,34.70
2019-02-06T00:21:29.887Z,33.48
2019-02-06T00:23:57.484Z,34.40
2019-02-06T00:26:24.549Z,35.60
2019-02-06T00:28:52.051Z,36.63
2019-02-06T00:31:20.454Z,33.83
2019-02-06T00:33:48.089Z,36.23
2019-02-06T00:36:16.060Z,35.63
2019-02-06T00:38:43.421Z,34.05
2019-02-06T00:41:12.936Z,32.45
2019-02-06T00:43:40.275Z,33.98
2019-02-06T00:46:07.629Z,31.82
2019-02-06T00:48:34.981Z,33.53
2019-02-06T00:51:03.076Z,33.45
2019-02-06T00:53:30.719Z,33.20
2019-02-06T00:55:58.068Z,34.75
2019-02-06T00:58:26.138Z,32.08
2019-02-06T01:00:53.495Z,31.85
2019-02-06T01:03:21.060Z,32.15
2019-02-06T01:05:48.119Z,34.95
2019-02-06T01:08:15.457Z,33.00
2019-02-06T01:10:43.227Z,31.95
2019-02-06T01:13:10.570Z,31.85
2019-02-06T01:15:37.930Z,33.90
2019-02-06T01:18:05.592Z,33.73
2019-02-06T01:20:33.046Z,31.23
2019-02-06T01:23:00.089Z,31.52
2019-02-06T01:25:27.447Z,30.92
2019-02-06T01:27:54.801Z,31.65
2019-02-06T01:30:24.515Z,32.30
2019-02-06T01:32:51.585Z,31.35
2019-02-06T01:35:18.914Z,31.65
2019-02-06T01:37:46.378Z,29.10
2019-02-06T01:40:15.283Z,31.60
2019-02-06T01:42:42.768Z,33.00
2019-02-06T01:45:11.422Z,32.65
2019-02-06T01:47:38.481Z,31.50
2019-02-06T01:50:08.869Z,33.67
2019-02-06T01:52:36.536Z,33.30
2019-02-06T01:55:04.633Z,33.18
2019-02-06T01:57:31.685Z,31.80
2019-02-06T01:59:58.970Z,30.48
2019-02-06T02:02:26.093Z,30.48
2019-02-06T02:04:53.777Z,30.88
2019-02-06T02:07:20.840Z,30.65
2019-02-06T02:09:49.014Z,32.40
2019-02-06T02:12:16.071Z,32.88
2019-02-06T02:14:45.322Z,30.50
2019-02-06T02:17:12.592Z,31.37
2019-02-06T02:19:39.734Z,31.68
2019-02-06T02:22:06.789Z,31.95
2019-02-06T02:24:33.880Z,30.60
2019-02-06T02:27:01.107Z,33.13
2019-02-06T02:29:28.160Z,30.15
2019-02-06T02:31:55.376Z,30.97
2019-02-06T02:34:23.309Z,32.30
2019-02-06T02:36:50.462Z,31.33
2019-02-06T02:39:19.828Z,31.95
2019-02-06T02:41:46.878Z,32.73
2019-02-06T02:44:14.304Z,32.13
2019-02-06T02:46:41.345Z,30.20
2019-02-06T02:49:08.657Z,30.00
2019-02-06T02:51:35.700Z,34.03
2019-02-06T02:54:03.949Z,32.67
2019-02-06T02:56:30.988Z,31.07
2019-02-06T02:58:58.226Z,33.30
2019-02-06T03:01:34.161Z,34.27
2019-02-06T03:04:21.662Z,30.50
2019-02-06T03:06:48.827Z,28.60
2019-02-06T03:09:15.905Z,30.02
2019-02-06T03:11:43.024Z,31.50
2019-02-06T03:14:10.450Z,32.80
2019-02-06T03:16:37.481Z,34.20
2019-02-06T03:19:04.709Z,32.20
2019-02-06T03:21:31.749Z,30.12
2019-02-06T03:23:59.086Z,33.13
2019-02-06T03:26:26.208Z,32.15
2019-02-06T03:28:53.233Z,32.05
2019-02-06T03:31:20.627Z,31.77
2019-02-06T03:33:48.862Z,30.50
2019-02-06T03:36:15.887Z,33.30
2019-02-06T03:38:44.776Z,31.33
2019-02-06T03:41:11.804Z,31.95
2019-02-06T03:43:38.890Z,30.15
2019-02-06T03:46:06.297Z,30.37
2019-02-06T03:48:33.331Z,34.30
2019-02-06T03:51:00.652Z,32.83
2019-02-06T03:53:27.693Z,30.02
2019-02-06T03:55:54.709Z,30.80
2019-02-06T03:58:21.761Z,32.40
2019-02-06T04:00:48.784Z,33.73
2019-02-06T04:03:15.817Z,29.60
2019-02-06T04:05:43.582Z,31.42
2019-02-06T04:08:11.622Z,29.63
2019-02-06T04:10:39.523Z,30.50
2019-02-06T04:13:06.875Z,31.00
2019-02-06T04:15:35.146Z,32.00
2019-02-06T04:18:02.507Z,30.57
2019-02-06T04:20:29.546Z,29.77
2019-02-06T04:22:57.213Z,31.23
2019-02-06T04:25:24.565Z,29.18
2019-02-06T04:27:51.996Z,32.70
2019-02-06T04:30:19.705Z,31.55
2019-02-06T04:32:47.040Z,31.50
2019-02-06T04:35:14.605Z,30.95
2019-02-06T04:37:41.648Z,33.00
2019-02-06T04:40:14.817Z,32.10
2019-02-06T04:42:41.877Z,31.12
2019-02-06T04:45:10.263Z,30.27
2019-02-06T04:47:37.467Z,33.28
2019-02-06T04:50:06.554Z,30.55
2019-02-06T04:52:34.269Z,33.50
2019-02-06T04:55:01.475Z,32.50
2019-02-06T04:57:28.690Z,32.00
2019-02-06T04:59:56.851Z,30.37
2019-02-06T05:02:24.550Z,30.05
2019-02-06T05:04:51.588Z,31.20
2019-02-06T05:07:19.750Z,33.08
2019-02-06T05:09:47.029Z,32.55
2019-02-06T05:12:14.237Z,32.03
2019-02-06T05:14:41.315Z,33.00
2019-02-06T05:17:08.393Z,32.55
2019-02-06T05:19:35.782Z,31.55
2019-02-06T05:22:03.551Z,30.57
2019-02-06T05:24:31.319Z,34.33
2019-02-06T05:26:58.725Z,33.25
2019-02-06T05:29:26.332Z,34.03
2019-02-06T05:31:53.652Z,33.35
2019-02-06T05:34:21.346Z,30.15
2019-02-06T05:36:50.968Z,33.05
2019-02-06T05:39:17.676Z,34.98
2019-02-06T05:41:45.053Z,35.58
2019-02-06T05:44:12.403Z,33.80
2019-02-06T05:46:40.784Z,34.13
2019-02-06T05:49:08.175Z,36.08
2019-02-06T05:51:36.624Z,36.95
2019-02-06T05:54:04.587Z,33.28
2019-02-06T05:56:32.103Z,37.83
2019-02-06T05:58:59.499Z,38.60
2019-02-06T06:01:27.569Z,37.10
2019-02-06T06:03:54.924Z,35.73
2019-02-06T06:06:22.285Z,34.95
2019-02-06T06:08:49.939Z,38.08
2019-02-06T06:11:17.306Z,35.03
2019-02-06T06:13:44.671Z,36.30
2019-02-06T06:16:13.235Z,35.48
2019-02-06T06:18:40.896Z,39.18
2019-02-06T06:21:09.820Z,37.17
2019-02-06T06:23:37.164Z,37.70
2019-02-06T06:26:04.609Z,40.65
2019-02-06T06:28:31.640Z,38.83
2019-02-06T06:30:59.140Z,37.53
2019-02-06T06:33:26.196Z,33.88
2019-02-06T06:35:53.777Z,35.88
2019-02-06T06:38:20.850Z,36.93
2019-02-06T06:40:48.825Z,37.05
2019-02-06T06:43:16.542Z,40.78
2019-02-06T06:45:44.356Z,39.70
2019-02-06T06:48:12.320Z,39.75
2019-02-06T06:50:39.675Z,40.75
2019-02-06T06:53:07.025Z,37.80
2019-02-06T06:55:35.391Z,39.27
2019-02-06T06:58:02.454Z,41.10
2019-02-06T07:00:30.941Z,39.50
2019-02-06T07:03:00.019Z,39.85
2019-02-06T07:05:27.284Z,37.53
2019-02-06T07:07:54.785Z,38.98
2019-02-06T07:10:22.259Z,37.98
2019-02-06T07:12:49.312Z,39.67
2019-02-06T07:15:21.420Z,40.40
2019-02-06T07:17:48.583Z,39.18
2019-02-06T07:20:17.277Z,36.33
2019-02-06T07:22:44.662Z,37.40
2019-02-06T07:25:13.670Z,38.08
2019-02-06T07:27:41.055Z,37.03
2019-02-06T07:30:13.307Z,35.00
2019-02-06T07:32:40.376Z,35.10
2019-02-06T07:35:07.448Z,34.67
2019-02-06T07:37:36.002Z,41.00
2019-02-06T07:40:04.262Z,36.30
2019-02-06T07:42:31.652Z,32.85
2019-02-06T07:45:00.174Z,33.70
2019-02-06T07:47:28.169Z,33.75
2019-02-06T07:49:55.166Z,31.95
2019-02-06T07:52:22.185Z,33.30
2019-02-06T07:54:49.185Z,35.43
2019-02-06T07:57:17.369Z,32.95
2019-02-06T07:59:44.373Z,33.38
2019-02-06T08:02:11.581Z,33.80
2019-02-06T08:04:41.454Z,31.07
2019-02-06T08:07:07.528Z,33.13
2019-02-06T08:09:34.525Z,32.83
2019-02-06T08:12:01.645Z,32.70
2019-02-06T08:14:32.997Z,30.50
2019-02-06T08:17:00.002Z,32.23
2019-02-06T08:19:27.197Z,30.80
2019-02-06T08:21:54.299Z,30.82
2019-02-06T08:24:21.661Z,32.25
2019-02-06T08:26:48.654Z,29.00
2019-02-06T08:29:15.803Z,32.10
2019-02-06T08:31:44.227Z,28.10
2019-02-06T08:34:12.350Z,29.90
2019-02-06T08:36:40.463Z,30.65
2019-02-06T08:39:07.933Z,29.70
2019-02-06T08:41:35.120Z,32.20
2019-02-06T08:44:02.401Z,32.40
2019-02-06T08:46:29.871Z,31.90
2019-02-06T08:48:57.678Z,29.45
2019-02-06T08:51:25.335Z,29.10
2019-02-06T08:53:53.126Z,26.50
2019-02-06T08:56:22.245Z,28.52
2019-02-06T08:58:50.068Z,26.95
2019-02-06T09:01:17.121Z,28.87
2019-02-06T09:03:44.180Z,25.02
2019-02-06T09:06:11.524Z,26.52
2019-02-06T09:08:39.588Z,27.05
2019-02-06T09:11:06.895Z,25.35
2019-02-06T09:13:34.750Z,26.80
2019-02-06T09:16:04.002Z,26.45
2019-02-06T09:18:32.152Z,25.43
2019-02-06T09:20:59.842Z,26.07
2019-02-06T09:23:26.904Z,23.77
2019-02-06T09:25:56.976Z,25.77
2019-02-06T09:28:23.217Z,26.15
2019-02-06T09:30:50.403Z,25.05
2019-02-06T09:33:17.857Z,24.60
2019-02-06T09:35:44.961Z,23.52
2019-02-06T09:38:12.018Z,24.15
2019-02-06T09:40:39.442Z,24.72
2019-02-06T09:43:07.364Z,26.40
2019-02-06T09:45:34.438Z,22.98
2019-02-06T09:48:01.895Z,25.50
2019-02-06T09:50:31.614Z,24.50
2019-02-06T09:52:58.986Z,26.90
2019-02-06T09:55:26.507Z,26.90
2019-02-06T09:57:53.566Z,25.30
2019-02-06T10:00:23.550Z,24.63
2019-02-06T10:02:51.210Z,25.20
2019-02-06T10:05:19.884Z,23.50
2019-02-06T10:07:47.256Z,25.00
2019-02-06T10:10:16.681Z,26.00
2019-02-06T10:12:45.238Z,26.93
2019-02-06T10:15:21.811Z,25.52
2019-02-06T10:17:49.510Z,21.70
2019-02-06T10:20:17.740Z,24.12
2019-02-06T10:22:45.510Z,23.05
2019-02-06T10:25:14.203Z,25.45
2019-02-06T10:27:43.393Z,21.45
2019-02-06T10:30:18.905Z,22.50
2019-02-06T10:32:45.953Z,20.90
2019-02-06T10:35:13.350Z,21.23
2019-02-06T10:37:40.696Z,21.85
2019-02-06T10:40:08.257Z,18.57
2019-02-06T10:42:35.715Z,18.60
2019-02-06T10:45:03.992Z,19.30
2019-02-06T10:47:31.348Z,17.62
2019-02-06T10:49:58.807Z,16.82
2019-02-06T10:52:26.961Z,19.35
2019-02-06T10:54:56.074Z,19.23
2019-02-06T10:57:23.136Z,17.35
2019-02-06T10:59:50.471Z,16.40
2019-02-06T11:02:17.827Z,16.65
2019-02-06T11:04:45.032Z,18.85
2019-02-06T11:07:12.088Z,18.65
2019-02-06T11:09:46.119Z,17.37
2019-02-06T11:12:11.125Z,19.35
2019-02-06T11:14:38.641Z,17.20
2019-02-06T11:17:05.734Z,18.30
2019-02-06T11:19:32.797Z,16.65
2019-02-06T11:21:59.975Z,18.67
2019-02-06T11:24:28.226Z,18.17
2019-02-06T11:26:56.483Z,19.12
2019-02-06T11:29:25.270Z,17.90
2019-02-06T11:31:53.761Z,19.60
2019-02-06T11:34:21.139Z,18.35
2019-02-06T11:36:48.226Z,19.00
2019-02-06T11:39:23.095Z,19.55
2019-02-06T11:41:50.783Z,19.00
2019-02-06T11:44:18.936Z,19.95
2019-02-06T11:46:46.288Z,20.80
2019-02-06T11:49:14.459Z,20.50
2019-02-06T11:51:41.812Z,20.72
2019-02-06T11:54:09.474Z,19.92
2019-02-06T11:56:36.562Z,22.58
2019-02-06T11:59:03.699Z,20.62
2019-02-06T12:01:35.208Z,20.00
2019-02-06T12:04:02.263Z,20.95
2019-02-06T12:06:29.371Z,21.17
2019-02-06T12:08:57.723Z,18.15
2019-02-06T12:11:24.797Z,19.85
2019-02-06T12:13:53.046Z,19.37
2019-02-06T12:16:20.242Z,21.10
2019-02-06T12:18:49.790Z,21.60
2019-02-06T12:21:18.137Z,20.30
2019-02-06T12:23:45.298Z,19.65
2019-02-06T12:26:12.686Z,22.02
2019-02-06T12:28:41.959Z,23.55
2019-02-06T12:31:09.518Z,19.12
2019-02-06T12:33:38.716Z,20.72
2019-02-06T12:36:06.377Z,20.97
2019-02-06T12:38:33.739Z,21.95
2019-02-06T12:41:01.088Z,18.65
2019-02-06T12:43:29.353Z,19.87
2019-02-06T12:45:57.133Z,19.27
2019-02-06T12:48:24.794Z,20.90
2019-02-06T12:50:51.856Z,19.70
2019-02-06T12:53:20.019Z,21.25
2019-02-06T12:55:47.104Z,19.85
2019-02-06T12:58:15.309Z,19.50
2019-02-06T13:00:42.524Z,18.80
2019-02-06T13:03:09.943Z,17.77
2019-02-06T13:05:37.295Z,18.32
2019-02-06T13:08:06.493Z,18.75
2019-02-06T13:10:34.625Z,18.05
2019-02-06T13:13:03.555Z,18.98
2019-02-06T13:15:31.384Z,18.10
2019-02-06T13:17:58.513Z,18.62
2019-02-06T13:20:27.354Z,20.32
2019-02-06T13:22:55.539Z,20.17
2019-02-06T13:25:23.718Z,18.27
2019-02-06T13:27:50.765Z,20.77
2019-02-06T13:30:20.884Z,20.17
2019-02-06T13:32:48.359Z,19.55
2019-02-06T13:35:17.785Z,20.20
2019-02-06T13:37:44.835Z,20.70
2019-02-06T13:40:14.376Z,21.05
2019-02-06T13:42:41.718Z,21.45
2019-02-06T13:45:11.739Z,19.73
2019-02-06T13:47:38.811Z,21.10
2019-02-06T13:50:08.082Z,19.30
2019-02-06T13:52:35.574Z,19.07
2019-02-06T13:55:02.667Z,20.88
2019-02-06T13:57:33.861Z,21.40
2019-02-06T13:59:59.472Z,21.02
2019-02-06T14:02:26.535Z,19.55
2019-02-06T14:04:53.866Z,19.82
2019-02-06T14:07:21.736Z,20.37
2019-02-06T14:09:49.222Z,20.32
2019-02-06T14:12:17.395Z,19.12
2019-02-06T14:14:45.134Z,20.25
2019-02-06T14:17:12.901Z,21.20
2019-02-06T14:19:39.943Z,18.57
2019-02-06T14:22:09.848Z,19.37
2019-02-06T14:25:02.632Z,17.73
2019-02-06T14:28:04.650Z,19.00
2019-02-06T14:30:58.934Z,19.90
2019-02-06T14:33:38.450Z,18.10
2019-02-06T14:36:47.246Z,20.10
2019-02-06T14:39:25.003Z,18.65
2019-02-06T14:42:18.097Z,19.10
2019-02-06T14:45:11.121Z,18.87
2019-02-06T14:48:17.872Z,18.20
2019-02-06T14:51:36.071Z,18.60
2019-02-06T14:54:31.116Z,17.35
2019-02-06T14:57:36.025Z,16.95
2019-02-06T15:00:27.523Z,17.10
2019-02-06T15:03:43.415Z,15.58
2019-02-06T15:06:39.182Z,17.23
2019-02-06T15:09:45.741Z,17.95
2019-02-06T15:12:57.450Z,17.37
2019-02-06T15:15:50.335Z,18.60
2019-02-06T15:18:37.827Z,17.30
2019-02-06T15:21:36.489Z,16.97
2019-02-06T15:25:01.841Z,17.23
2019-02-06T15:28:42.909Z,18.23
2019-02-06T15:31:53.357Z,17.73
2019-02-06T15:35:10.266Z,16.60
2019-02-06T15:38:15.595Z,17.40
2019-02-06T15:40:54.293Z,17.47
2019-02-06T15:44:00.286Z,18.12
2019-02-06T15:46:42.170Z,18.30
2019-02-06T15:49:30.661Z,20.00
2019-02-06T15:52:38.602Z,17.95
2019-02-06T15:55:50.883Z,18.10
2019-02-06T15:58:47.186Z,17.20
2019-02-06T16:01:39.058Z,19.57
2019-02-06T16:05:40.703Z,19.15
2019-02-06T16:09:01.573Z,18.40
2019-02-06T16:11:51.019Z,19.02
2019-02-06T16:14:53.619Z,19.75
2019-02-06T16:17:49.951Z,19.40
2019-02-06T16:20:53.877Z,20.82
2019-02-06T16:23:56.842Z,18.65
2019-02-06T16:27:02.407Z,20.88
2019-02-06T16:30:03.007Z,22.32
2019-02-06T16:32:59.159Z,21.52
2019-02-06T16:35:54.147Z,22.93
2019-02-06T16:38:39.801Z,21.60
2019-02-06T16:41:56.681Z,21.40
2019-02-06T16:44:58.207Z,22.75
2019-02-06T16:48:00.096Z,20.82
2019-02-06T16:50:52.427Z,23.65
2019-02-06T16:54:08.469Z,22.55
2019-02-06T16:57:27.083Z,22.22
2019-02-06T17:00:31.301Z,22.00
2019-02-06T17:03:40.854Z,21.77
2019-02-06T17:06:39.625Z,24.72
2019-02-06T17:09:55.231Z,23.15
2019-02-06T17:12:54.319Z,23.42
2019-02-06T17:16:07.747Z,24.43
2019-02-06T17:19:13.196Z,22.98
2019-02-06T17:21:57.230Z,22.75
2019-02-06T17:24:48.123Z,25.33
2019-02-06T17:27:40.756Z,23.70
2019-02-06T17:30:53.146Z,24.50
2019-02-06T17:33:51.989Z,24.87
2019-02-06T17:36:50.487Z,23.42
2019-02-06T17:39:57.194Z,23.65
2019-02-06T17:43:09.873Z,24.10
2019-02-06T17:46:15.428Z,24.90
2019-02-06T17:49:22.006Z,24.30
2019-02-06T17:52:17.137Z,24.77
2019-02-06T17:55:20.512Z,26.83
2019-02-06T17:57:49.504Z,26.53
2019-02-06T18:00:28.248Z,27.60
2019-02-06T18:02:55.368Z,29.77
2019-02-06T18:05:22.443Z,29.60
2019-02-06T18:07:49.487Z,29.23
2019-02-06T18:10:17.030Z,28.83
2019-02-06T18:12:44.064Z,32.70
2019-02-06T18:15:11.101Z,28.63
2019-02-06T18:17:38.307Z,31.37
2019-02-06T18:20:07.627Z,31.90
2019-02-06T18:22:34.658Z,31.40
2019-02-06T18:25:02.270Z,28.57
2019-02-06T18:27:30.451Z,31.27
2019-02-06T18:29:58.184Z,32.67
2019-02-06T18:32:25.271Z,31.17
2019-02-06T18:34:52.748Z,33.63
2019-02-06T18:37:20.927Z,32.10
2019-02-06T18:39:48.137Z,32.30
2019-02-06T18:42:17.341Z,33.27
2019-02-06T18:44:46.137Z,29.70
2019-02-06T18:47:13.232Z,32.80
2019-02-06T18:49:40.322Z,32.67
2019-02-06T18:52:07.707Z,31.73
2019-02-06T18:54:35.916Z,32.43
2019-02-06T18:57:02.964Z,31.93
2019-02-06T18:59:30.096Z,31.80
2019-02-06T19:01:57.245Z,31.73
2019-02-06T19:04:24.490Z,31.20
2019-02-06T19:06:52.433Z,30.17
2019-02-06T19:09:20.105Z,32.97
2019-02-06T19:11:47.164Z,33.17
2019-02-06T19:14:15.207Z,33.80
2019-02-06T19:16:42.293Z,32.73
2019-02-06T19:19:09.354Z,33.20
2019-02-06T19:21:36.414Z,33.47
2019-02-06T19:24:04.411Z,35.13
2019-02-06T19:26:32.168Z,34.67
2019-02-06T19:28:59.594Z,33.20
2019-02-06T19:31:28.479Z,33.87
2019-02-06T19:33:55.539Z,35.07
2019-02-06T19:36:23.320Z,35.03
2019-02-06T19:38:50.763Z,33.80
2019-02-06T19:41:17.820Z,35.00
2019-02-06T19:43:44.897Z,37.37
2019-02-06T19:46:12.299Z,37.27
2019-02-06T19:48:39.345Z,45.78
2019-02-06T19:51:06.749Z,37.00
2019-02-06T19:53:33.967Z,36.23
2019-02-06T19:56:01.035Z,36.20
2019-02-06T19:58:28.508Z,34.97
2019-02-06T20:00:55.742Z,33.53
2019-02-06T20:03:22.762Z,34.67
2019-02-06T20:05:49.801Z,34.77
2019-02-06T20:08:16.961Z,33.70
2019-02-06T20:10:45.543Z,34.33
2019-02-06T20:13:14.619Z,34.90
2019-02-06T20:15:41.885Z,38.10
2019-02-06T20:18:09.365Z,31.90
2019-02-06T20:20:36.431Z,33.47
2019-02-06T20:23:19.451Z,32.83
2019-02-06T20:25:46.609Z,36.17
2019-02-06T20:28:13.646Z,34.07
2019-02-06T20:30:40.869Z,31.83
2019-02-06T20:33:09.206Z,34.97
2019-02-06T20:35:37.118Z,33.53
2019-02-06T20:38:04.317Z,33.07
2019-02-06T20:40:33.074Z,33.10
2019-02-06T20:43:01.127Z,34.10
2019-02-06T20:45:29.240Z,34.07
2019-02-06T20:47:57.828Z,33.70
2019-02-06T20:50:29.258Z,30.80
2019-02-06T20:52:57.072Z,31.17
2019-02-06T20:55:24.542Z,31.90
2019-02-06T20:57:51.717Z,32.10
2019-02-06T21:00:24.153Z,32.60
2019-02-06T21:02:51.281Z,31.53
2019-02-06T21:05:18.820Z,30.70
2019-02-06T21:07:46.426Z,33.73
2019-02-06T21:10:16.106Z,31.27
2019-02-06T21:12:43.221Z,33.67
2019-02-06T21:15:10.541Z,33.30
2019-02-06T21:17:37.608Z,31.80
2019-02-06T21:20:07.164Z,34.87
2019-02-06T21:22:34.594Z,32.70
2019-02-06T21:25:04.372Z,31.77
2019-02-06T21:27:33.148Z,32.93
2019-02-06T21:30:00.395Z,31.40
2019-02-06T21:32:27.715Z,30.30
2019-02-06T21:34:55.343Z,32.40
2019-02-06T21:37:23.638Z,31.60
2019-02-06T21:39:50.716Z,31.13
2019-02-06T21:42:18.206Z,30.03
2019-02-06T21:44:45.497Z,30.07
2019-02-06T21:47:13.067Z,32.87
2019-02-06T21:49:40.532Z,29.90
2019-02-06T21:52:09.615Z,31.33
2019-02-06T21:54:37.559Z,28.47
2019-02-06T21:57:05.439Z,29.17
2019-02-06T21:59:32.698Z,27.37
2019-02-06T22:02:01.485Z,27.90
2019-02-06T22:04:28.770Z,27.93
2019-02-06T22:06:56.199Z,27.30
2019-02-06T22:09:23.572Z,27.00
2019-02-06T22:11:50.988Z,24.83
2019-02-06T22:14:18.457Z,24.00
2019-02-06T22:16:45.588Z,25.90
2019-02-06T22:19:13.389Z,26.70
2019-02-06T22:21:40.593Z,24.73
2019-02-06T22:24:07.689Z,23.07
2019-02-06T22:26:34.791Z,22.83
2019-02-06T22:29:01.881Z,26.43
2019-02-06T22:31:29.356Z,24.03
2019-02-06T22:33:57.309Z,24.70
2019-02-06T22:36:26.695Z,23.90
2019-02-06T22:38:54.154Z,23.63
2019-02-06T22:41:21.559Z,23.97
2019-02-06T22:43:49.078Z,26.17
2019-02-06T22:46:16.261Z,26.00
2019-02-06T22:48:43.356Z,25.00
2019-02-06T22:51:10.430Z,24.43
2019-02-06T22:53:38.066Z,24.13
2019-02-06T22:56:05.401Z,24.70
2019-02-06T22:58:32.517Z,24.67
2019-02-06T23:01:21.928Z,24.37
2019-02-06T23:03:49.632Z,23.07
2019-02-06T23:06:16.760Z,25.87
2019-02-06T23:08:44.142Z,25.83
2019-02-06T23:11:11.221Z,26.13
2019-02-06T23:13:40.194Z,25.97
2019-02-06T23:16:07.716Z,24.47
2019-02-06T23:18:35.803Z,25.77
2019-02-06T23:21:02.845Z,26.43
2019-02-06T23:23:31.021Z,26.43
2019-02-06T23:25:58.357Z,25.90
2019-02-06T23:28:25.406Z,24.57
2019-02-06T23:30:52.512Z,24.00
2019-02-06T23:33:19.542Z,23.07
2019-02-06T23:35:48.186Z,22.70
2019-02-06T23:38:15.628Z,25.40
2019-02-06T23:40:43.110Z,25.33
2019-02-06T23:43:10.276Z,24.90
2019-02-06T23:45:37.372Z,26.00
2019-02-06T23:48:05.484Z,25.20
2019-02-06T23:50:33.136Z,25.47
2019-02-06T23:53:01.614Z,25.80
2019-02-06T23:55:28.782Z,25.47
2019-02-06T23:57:56.423Z,25.93
